createdAt,value
2023-02-17T00:02:33.545Z,10.09
2023-02-17T00:07:38.087Z,10.08
2023-02-17T00:12:41.202Z,10.09
2023-02-17T00:17:44.159Z,10.08
2023-02-17T00:22:48.543Z,10.07
2023-02-17T00:27:51.641Z,10.07
2023-02-17T00:32:54.680Z,10.08
2023-02-17T00:37:59.114Z,10.08
2023-02-17T00:43:02.139Z,10.09
2023-02-17T00:48:05.470Z,10.05
2023-02-17T00:53:10.088Z,10.06
2023-02-17T00:58:13.275Z,10.07
2023-02-17T01:03:16.431Z,10.07
2023-02-17T01:08:22.370Z,10.06
2023-02-17T01:13:26.933Z,10.07
2023-02-17T01:18:31.330Z,10.05
2023-02-17T01:23:35.717Z,10.06
2023-02-17T01:28:38.727Z,10.06
2023-02-17T01:33:41.912Z,10.04
2023-02-17T01:38:47.484Z,10.02
2023-02-17T01:44:17.336Z,10.02
2023-02-17T01:49:28.116Z,9.95
2023-02-17T01:54:38.709Z,9.96
2023-02-17T01:59:45.866Z,9.96
2023-02-17T02:04:52.496Z,9.93
2023-02-17T02:09:58.840Z,9.88
2023-02-17T02:15:06.726Z,9.85
2023-02-17T02:20:40.229Z,9.76
2023-02-17T02:26:06.175Z,9.78
2023-02-17T02:31:38.469Z,9.79
2023-02-17T02:36:48.729Z,9.84
2023-02-17T02:41:56.726Z,9.87
2023-02-17T02:47:03.473Z,9.88
2023-02-17T02:52:15.007Z,9.85
2023-02-17T02:57:27.549Z,9.86
2023-02-17T03:02:36.038Z,9.85
2023-02-17T03:07:46.172Z,9.89
2023-02-17T03:12:50.152Z,9.89
2023-02-17T03:17:54.108Z,9.83
2023-02-17T03:22:58.836Z,9.87
2023-02-17T03:28:02.234Z,9.89
2023-02-17T03:33:06.041Z,9.88
2023-02-17T03:38:10.471Z,9.84
2023-02-17T03:43:13.440Z,9.86
2023-02-17T03:48:16.502Z,9.90
2023-02-17T03:53:20.929Z,9.88
2023-02-17T03:58:25.126Z,9.87
2023-02-17T04:03:28.275Z,9.88
2023-02-17T04:08:32.785Z,9.89
2023-02-17T04:13:36.622Z,9.91
2023-02-17T04:18:39.638Z,9.89
2023-02-17T04:23:43.990Z,9.88
2023-02-17T04:28:47.287Z,9.86
2023-02-17T04:33:50.208Z,9.85
2023-02-17T04:38:54.791Z,9.86
2023-02-17T04:43:58.001Z,9.77
2023-02-17T04:49:00.981Z,9.70
2023-02-17T04:54:05.724Z,9.72
2023-02-17T04:59:10.650Z,9.73
2023-02-17T05:04:13.640Z,9.71
2023-02-17T05:09:18.013Z,9.76
2023-02-17T05:14:21.025Z,9.71
2023-02-17T05:19:24.244Z,9.79
2023-02-17T05:24:28.561Z,9.77
2023-02-17T05:29:31.609Z,9.82
2023-02-17T05:34:34.670Z,9.83
2023-02-17T05:39:39.112Z,9.77
2023-02-17T05:44:42.210Z,9.78
2023-02-17T05:49:45.228Z,9.82
2023-02-17T05:54:49.641Z,9.83
2023-02-17T05:59:52.621Z,9.85
2023-02-17T06:04:55.793Z,9.86
2023-02-17T06:10:00.161Z,9.87
2023-02-17T06:15:03.402Z,9.88
2023-02-17T06:20:08.195Z,9.88
2023-02-17T06:25:12.658Z,9.91
2023-02-17T06:30:17.660Z,9.92
2023-02-17T06:35:20.680Z,9.93
2023-02-17T06:40:27.500Z,9.94
2023-02-17T06:45:31.536Z,9.96
2023-02-17T06:50:35.138Z,9.97
2023-02-17T06:55:39.701Z,9.96
2023-02-17T07:00:42.683Z,9.99
2023-02-17T07:05:45.788Z,10.03
2023-02-17T07:10:50.395Z,10.06
2023-02-17T07:15:53.403Z,10.10
2023-02-17T07:20:56.412Z,10.16
2023-02-17T07:26:05.061Z,10.18
2023-02-17T07:31:09.155Z,10.20
2023-02-17T07:36:14.499Z,10.28
2023-02-17T07:41:20.436Z,10.33
2023-02-17T07:46:24.306Z,10.41
2023-02-17T07:51:28.530Z,10.46
2023-02-17T07:56:34.022Z,10.53
2023-02-17T08:01:37.122Z,10.57
2023-02-17T08:06:41.025Z,10.62
2023-02-17T08:12:09.720Z,10.67
2023-02-17T08:17:13.554Z,10.75
2023-02-17T08:22:17.118Z,10.77
2023-02-17T08:27:22.402Z,10.81
2023-02-17T08:32:25.506Z,10.97
2023-02-17T08:37:30.303Z,10.96
2023-02-17T08:42:34.778Z,11.01
2023-02-17T08:47:38.279Z,10.99
2023-02-17T08:52:41.374Z,11.01
2023-02-17T08:57:45.867Z,10.99
2023-02-17T09:02:49.042Z,10.98
2023-02-17T09:07:52.148Z,11.06
2023-02-17T09:12:56.535Z,11.15
2023-02-17T09:17:59.745Z,11.37
2023-02-17T09:23:02.802Z,11.45
2023-02-17T09:28:07.844Z,11.32
2023-02-17T09:33:11.171Z,11.29
2023-02-17T09:38:14.230Z,11.35
2023-02-17T09:43:21.965Z,11.38
2023-02-17T09:48:30.214Z,11.37
2023-02-17T09:53:38.725Z,11.38
2023-02-17T09:58:47.874Z,11.42
2023-02-17T10:03:57.108Z,11.53
2023-02-17T10:09:04.925Z,11.56
2023-02-17T10:14:17.115Z,11.64
2023-02-17T10:19:26.473Z,12.10
2023-02-17T10:24:29.568Z,12.18
2023-02-17T10:29:43.141Z,12.22
2023-02-17T10:34:58.822Z,12.26
2023-02-17T10:40:03.054Z,12.50
2023-02-17T10:45:14.480Z,12.22
2023-02-17T10:50:23.000Z,12.19
2023-02-17T10:55:35.119Z,12.47
2023-02-17T11:00:40.142Z,12.72
2023-02-17T11:05:43.323Z,12.94
2023-02-17T11:10:46.356Z,12.78
2023-02-17T11:15:50.885Z,12.55
2023-02-17T11:21:02.096Z,12.37
2023-02-17T11:26:11.473Z,12.25
2023-02-17T11:31:26.148Z,12.19
2023-02-17T11:36:32.327Z,12.16
2023-02-17T11:41:40.995Z,12.06
2023-02-17T11:46:54.089Z,12.04
2023-02-17T11:52:08.440Z,12.12
2023-02-17T11:57:24.541Z,12.18
2023-02-17T12:02:44.196Z,12.24
2023-02-17T12:07:58.222Z,12.02
2023-02-17T12:13:20.653Z,12.01
2023-02-17T12:18:41.803Z,12.02
2023-02-17T12:24:02.400Z,11.93
2023-02-17T12:29:16.767Z,11.92
2023-02-17T12:34:32.944Z,11.85
2023-02-17T12:39:42.788Z,11.94
2023-02-17T12:44:48.784Z,11.85
2023-02-17T12:50:00.754Z,11.79
2023-02-17T12:55:11.467Z,11.60
2023-02-17T13:00:21.298Z,11.59
2023-02-17T13:05:30.133Z,11.49
2023-02-17T13:10:35.814Z,11.57
2023-02-17T13:15:42.950Z,11.34
2023-02-17T13:21:01.788Z,11.26
2023-02-17T13:26:19.423Z,11.34
2023-02-17T13:31:25.118Z,11.36
2023-02-17T13:36:38.355Z,11.35
2023-02-17T13:41:47.091Z,11.54
2023-02-17T13:46:50.117Z,11.78
2023-02-17T13:51:55.194Z,11.77
2023-02-17T13:56:58.276Z,11.77
2023-02-17T14:02:01.375Z,11.79
2023-02-17T14:07:06.336Z,11.76
2023-02-17T14:12:24.878Z,11.80
2023-02-17T14:17:32.649Z,11.97
2023-02-17T14:22:37.995Z,11.94
2023-02-17T14:27:46.524Z,11.74
2023-02-17T14:32:49.565Z,11.72
2023-02-17T14:37:55.644Z,11.85
2023-02-17T14:42:58.709Z,11.77
2023-02-17T14:48:01.694Z,11.59
2023-02-17T14:53:14.143Z,11.61
2023-02-17T14:58:21.040Z,11.58
2023-02-17T15:03:24.778Z,11.59
2023-02-17T15:08:33.509Z,11.39
2023-02-17T15:13:36.639Z,11.47
2023-02-17T15:18:39.986Z,11.43
2023-02-17T15:23:44.505Z,11.42
2023-02-17T15:28:47.760Z,11.51
2023-02-17T15:33:56.977Z,11.48
2023-02-17T15:39:01.390Z,11.49
2023-02-17T15:44:06.277Z,11.48
2023-02-17T15:49:11.995Z,11.38
2023-02-17T15:54:19.304Z,11.35
2023-02-17T15:59:26.956Z,11.28
2023-02-17T16:04:30.115Z,11.28
2023-02-17T16:09:34.564Z,11.21
2023-02-17T16:14:39.309Z,11.18
2023-02-17T16:19:42.634Z,11.03
2023-02-17T16:24:49.014Z,11.05
2023-02-17T16:29:52.368Z,11.05
2023-02-17T16:34:55.614Z,10.93
2023-02-17T16:40:00.397Z,10.98
2023-02-17T16:45:03.472Z,10.94
2023-02-17T16:50:08.663Z,10.87
2023-02-17T16:55:18.330Z,10.76
2023-02-17T17:00:23.810Z,10.68
2023-02-17T17:05:29.054Z,10.69
2023-02-17T17:10:36.487Z,10.63
2023-02-17T17:15:43.657Z,10.55
2023-02-17T17:20:46.690Z,10.53
2023-02-17T17:25:51.180Z,10.55
2023-02-17T17:30:54.132Z,10.46
2023-02-17T17:35:57.224Z,10.46
2023-02-17T17:41:01.524Z,10.39
2023-02-17T17:46:11.979Z,10.38
2023-02-17T17:51:17.149Z,10.28
2023-02-17T17:56:24.000Z,10.22
2023-02-17T18:01:27.147Z,10.26
2023-02-17T18:06:34.557Z,10.23
2023-02-17T18:11:41.339Z,10.23
2023-02-17T18:16:46.726Z,10.18
2023-02-17T18:21:49.730Z,10.11
2023-02-17T18:26:54.200Z,10.03
2023-02-17T18:31:59.194Z,10.07
2023-02-17T18:37:07.239Z,10.02
2023-02-17T18:42:11.789Z,10.07
2023-02-17T18:47:14.803Z,9.93
2023-02-17T18:52:17.823Z,9.96
2023-02-17T18:57:22.178Z,9.88
2023-02-17T19:02:26.078Z,9.83
2023-02-17T19:07:29.170Z,9.77
2023-02-17T19:12:34.274Z,9.77
2023-02-17T19:17:37.252Z,9.87
2023-02-17T19:22:40.408Z,9.82
2023-02-17T19:27:44.810Z,9.86
2023-02-17T19:32:47.875Z,9.96
2023-02-17T19:37:50.907Z,10.01
2023-02-17T19:42:55.304Z,10.00
2023-02-17T19:47:58.264Z,9.95
2023-02-17T19:53:01.252Z,9.94
2023-02-17T19:58:06.357Z,10.00
2023-02-17T20:03:09.551Z,10.05
2023-02-17T20:08:12.616Z,10.02
2023-02-17T20:13:17.015Z,10.02
2023-02-17T20:18:20.135Z,9.91
2023-02-17T20:23:23.460Z,9.82
2023-02-17T20:28:28.556Z,9.88
2023-02-17T20:33:31.902Z,9.91
2023-02-17T20:38:35.044Z,9.94
2023-02-17T20:43:39.641Z,10.00
2023-02-17T20:48:45.405Z,10.06
2023-02-17T20:53:48.597Z,10.05
2023-02-17T20:58:53.442Z,10.11
2023-02-17T21:03:56.560Z,10.08
2023-02-17T21:09:02.195Z,10.14
2023-02-17T21:14:06.709Z,10.09
2023-02-17T21:19:09.677Z,10.00
2023-02-17T21:24:13.150Z,10.03
2023-02-17T21:29:18.688Z,10.06
2023-02-17T21:34:21.710Z,10.09
2023-02-17T21:39:24.933Z,10.08
2023-02-17T21:44:55.209Z,10.09
2023-02-17T21:49:58.121Z,10.07
2023-02-17T21:55:01.820Z,10.09
2023-02-17T22:00:08.925Z,10.06
2023-02-17T22:05:15.170Z,10.02
2023-02-17T22:10:18.633Z,9.96
2023-02-17T22:15:22.993Z,9.98
2023-02-17T22:20:26.779Z,9.94
2023-02-17T22:25:31.255Z,9.93
2023-02-17T22:30:35.696Z,9.87
2023-02-17T22:35:38.694Z,9.83
2023-02-17T22:40:41.861Z,9.85
2023-02-17T22:45:46.249Z,9.82
2023-02-17T22:50:49.217Z,9.82
2023-02-17T22:55:53.748Z,9.82
2023-02-17T23:01:06.197Z,9.77
2023-02-17T23:06:12.667Z,9.76
2023-02-17T23:11:19.467Z,9.71
2023-02-17T23:16:25.745Z,9.69
2023-02-17T23:21:28.754Z,9.61
2023-02-17T23:26:31.736Z,9.52
2023-02-17T23:31:37.752Z,9.45
2023-02-17T23:36:41.707Z,9.40
2023-02-17T23:41:44.757Z,9.36
2023-02-17T23:46:49.323Z,9.34
2023-02-17T23:51:52.243Z,9.27
2023-02-17T23:56:55.276Z,9.24
